Terminal Aerodrome Forecast
Issued by NWS

Home | Current Version | Previous Version | Text Only | Print | Product List | Glossary On
Versions: 1 2 3 4 5 6 7 8 9 10 11 12 13 14 15 16 17 18 19
000
FTUS46 KSGX 240520
TAFCRQ
TAF
KCRQ 240520Z 2406/2506 VRB04KT P6SM SKC
     FM240700 VRB04KT 2SM BR OVC005
     FM241500 VRB04KT 3SM BR BKN007
     FM241700 20006KT P6SM SCT010 SCT200
     FM241900 22009KT P6SM SCT012 SCT200
     FM250100 VRB04KT P6SM SCT012 SCT200=

USA.gov is the U.S. government's official web portal to all federal, state and local government web resources and services.